Hlavní strana
METAR-TAF:

METAR-TAF

Letiště :

Røros, Norsko

zeměpisná šířka: 62-35N, zeměpisná délka: 011-21E, výška: 626 m

Aktuální stav počasí

Zpráva byla vytvořena před 39 minutami, v 08:50 UTC
Severoseverozápadní vítr 12 kt, proměnlivý mezi severozápadním a severním
Teplota -4°C
Vlhkost vzduchu 74%
Tlak 1017 hPa
Viditelnost 10 km a více
Skoro jasno ve výšce 500 ft
Polojasno ve výšce 1800 ft
slabé sněhové přeháňky

METAR: ENRO 040850Z 34012KT 310V010 9999 -SHSN FEW005 SCT018 M04/M08 Q1017

Čas: 10:29 (09:29 UTC)

Předpověď počasí

Zpráva byla vytvořena před 1 hodinou a 29 minutami, v 08:00 UTC
Předpověď platná od 04 v 09 UTC do 04 v 18 UTC
Severoseverozápadní vítr 12 kt
Viditelnost 10 km a více
Skoro jasno ve výšce 1500 ft, Cumulonimbus.
Oblačno až skoro zataženo ve výšce 2500 ft
Dočasný
od 04 v 09 UTC do 04 v 18 UTC
Severozápadní vítr 15 kt s nárazy do 25 kt
Viditelnost: 1500 m
ve výšce 800 ft
sněhové přeháňky

TAF: ENRO 040800Z 0409/0418 33012KT 9999 FEW015CB BKN025 TEMPO 0409/0418 31015G25KT 1500 SHSN VV008

Stav a předpovědi počasí z více než 4 000 letišť (zprávy METAR a TAF).

Červené a žluté tečky na mapě představují dostupné meteorologické stanice.

Když kurzor umístíte na tečku, zobrazí se název stanice.

Pak kliknutím zobrazíte stav a předpověď počasí.

Chcete-li změnit mapu, kliknutím na zelené tlačítko se znaménkem +mapu přiblížíte, kliknutím na zelené tlačítko se znaménkem – mapu oddálíte a kliknutím na zelené šipky přejdete na sousední mapy.


METAR-TAF: